sensor_id;sensor_type;location;lat;lon;timestamp;P1;durP1;ratioP1;P2;durP2;ratioP2
52724;SDS011;38621;52.830;6.914;2023-07-20T00:01:13;2.70;;;1.42;;
52724;SDS011;38621;52.830;6.914;2023-07-20T00:03:39;2.88;;;1.90;;
52724;SDS011;38621;52.830;6.914;2023-07-20T00:06:04;2.40;;;1.40;;
52724;SDS011;38621;52.830;6.914;2023-07-20T00:08:30;2.13;;;1.33;;
52724;SDS011;38621;52.830;6.914;2023-07-20T00:10:56;1.95;;;1.27;;
52724;SDS011;38621;52.830;6.914;2023-07-20T00:13:22;2.25;;;1.52;;
52724;SDS011;38621;52.830;6.914;2023-07-20T00:15:47;2.60;;;1.35;;
52724;SDS011;38621;52.830;6.914;2023-07-20T00:18:13;3.08;;;1.83;;
52724;SDS011;38621;52.830;6.914;2023-07-20T00:20:39;2.55;;;1.45;;
52724;SDS011;38621;52.830;6.914;2023-07-20T00:23:05;2.42;;;2.17;;
52724;SDS011;38621;52.830;6.914;2023-07-20T00:25:31;2.38;;;1.25;;
52724;SDS011;38621;52.830;6.914;2023-07-20T00:27:57;3.15;;;2.33;;
52724;SDS011;38621;52.830;6.914;2023-07-20T00:30:22;2.83;;;1.45;;
52724;SDS011;38621;52.830;6.914;2023-07-20T00:32:48;2.45;;;1.60;;
52724;SDS011;38621;52.830;6.914;2023-07-20T00:35:14;3.75;;;1.60;;
52724;SDS011;38621;52.830;6.914;2023-07-20T00:37:39;2.47;;;1.50;;
52724;SDS011;38621;52.830;6.914;2023-07-20T00:40:05;2.38;;;1.50;;
52724;SDS011;38621;52.830;6.914;2023-07-20T00:42:34;2.92;;;1.98;;
52724;SDS011;38621;52.830;6.914;2023-07-20T00:45:00;2.80;;;2.03;;
52724;SDS011;38621;52.830;6.914;2023-07-20T00:47:26;2.63;;;1.45;;
52724;SDS011;38621;52.830;6.914;2023-07-20T00:49:52;3.88;;;1.67;;
52724;SDS011;38621;52.830;6.914;2023-07-20T00:52:20;2.50;;;1.50;;
52724;SDS011;38621;52.830;6.914;2023-07-20T00:54:48;3.00;;;1.67;;
52724;SDS011;38621;52.830;6.914;2023-07-20T00:57:15;2.10;;;1.30;;
52724;SDS011;38621;52.830;6.914;2023-07-20T00:59:43;3.05;;;1.67;;
52724;SDS011;38621;52.830;6.914;2023-07-20T01:02:09;2.83;;;1.50;;
52724;SDS011;38621;52.830;6.914;2023-07-20T01:04:35;2.08;;;1.40;;
52724;SDS011;38621;52.830;6.914;2023-07-20T01:09:49;2.33;;;1.67;;
52724;SDS011;38621;52.830;6.914;2023-07-20T01:12:26;2.85;;;1.60;;
52724;SDS011;38621;52.830;6.914;2023-07-20T01:14:57;2.80;;;1.65;;
52724;SDS011;38621;52.830;6.914;2023-07-20T01:17:23;2.38;;;1.60;;
52724;SDS011;38621;52.830;6.914;2023-07-20T01:19:49;2.75;;;1.67;;
52724;SDS011;38621;52.830;6.914;2023-07-20T01:25:45;2.17;;;1.35;;
52724;SDS011;38621;52.830;6.914;2023-07-20T01:30:41;2.13;;;1.52;;
52724;SDS011;38621;52.830;6.914;2023-07-20T01:33:09;2.55;;;1.52;;
52724;SDS011;38621;52.830;6.914;2023-07-20T01:35:37;3.05;;;1.60;;
52724;SDS011;38621;52.830;6.914;2023-07-20T01:38:05;2.35;;;1.50;;
52724;SDS011;38621;52.830;6.914;2023-07-20T01:40:32;2.40;;;1.48;;
52724;SDS011;38621;52.830;6.914;2023-07-20T01:42:59;2.17;;;1.20;;
52724;SDS011;38621;52.830;6.914;2023-07-20T01:45:24;3.22;;;1.42;;
52724;SDS011;38621;52.830;6.914;2023-07-20T01:47:51;2.67;;;1.50;;
52724;SDS011;38621;52.830;6.914;2023-07-20T01:50:17;1.98;;;1.30;;
52724;SDS011;38621;52.830;6.914;2023-07-20T01:52:43;2.42;;;1.60;;
52724;SDS011;38621;52.830;6.914;2023-07-20T01:55:09;1.80;;;1.15;;
52724;SDS011;38621;52.830;6.914;2023-07-20T01:57:34;2.15;;;1.40;;
52724;SDS011;38621;52.830;6.914;2023-07-20T02:00:00;2.30;;;1.38;;
52724;SDS011;38621;52.830;6.914;2023-07-20T02:02:26;2.13;;;1.27;;
52724;SDS011;38621;52.830;6.914;2023-07-20T02:04:53;3.00;;;1.40;;
52724;SDS011;38621;52.830;6.914;2023-07-20T02:07:19;2.42;;;1.50;;
52724;SDS011;38621;52.830;6.914;2023-07-20T02:09:44;2.58;;;1.65;;
52724;SDS011;38621;52.830;6.914;2023-07-20T02:12:10;2.42;;;1.60;;
52724;SDS011;38621;52.830;6.914;2023-07-20T02:14:36;2.28;;;1.50;;
52724;SDS011;38621;52.830;6.914;2023-07-20T02:17:01;3.33;;;1.60;;
52724;SDS011;38621;52.830;6.914;2023-07-20T02:19:27;2.08;;;1.40;;
52724;SDS011;38621;52.830;6.914;2023-07-20T02:21:55;2.10;;;1.40;;
52724;SDS011;38621;52.830;6.914;2023-07-20T02:24:20;3.25;;;1.50;;
52724;SDS011;38621;52.830;6.914;2023-07-20T02:26:46;2.47;;;1.60;;
52724;SDS011;38621;52.830;6.914;2023-07-20T02:29:12;2.38;;;1.77;;
52724;SDS011;38621;52.830;6.914;2023-07-20T02:31:37;2.40;;;1.50;;
52724;SDS011;38621;52.830;6.914;2023-07-20T02:34:07;2.17;;;1.60;;
52724;SDS011;38621;52.830;6.914;2023-07-20T02:36:34;3.97;;;1.98;;
52724;SDS011;38621;52.830;6.914;2023-07-20T02:39:00;2.63;;;1.73;;
52724;SDS011;38621;52.830;6.914;2023-07-20T02:41:28;2.67;;;1.70;;
52724;SDS011;38621;52.830;6.914;2023-07-20T02:43:58;2.70;;;1.80;;
52724;SDS011;38621;52.830;6.914;2023-07-20T02:46:24;2.55;;;1.77;;
52724;SDS011;38621;52.830;6.914;2023-07-20T02:48:49;3.28;;;2.10;;
52724;SDS011;38621;52.830;6.914;2023-07-20T02:51:15;2.85;;;2.13;;
52724;SDS011;38621;52.830;6.914;2023-07-20T02:53:41;2.45;;;1.88;;
52724;SDS011;38621;52.830;6.914;2023-07-20T02:56:06;3.70;;;2.13;;
52724;SDS011;38621;52.830;6.914;2023-07-20T02:58:33;2.80;;;2.00;;
52724;SDS011;38621;52.830;6.914;2023-07-20T03:01:02;3.42;;;2.05;;
52724;SDS011;38621;52.830;6.914;2023-07-20T03:03:28;3.10;;;2.28;;
52724;SDS011;38621;52.830;6.914;2023-07-20T03:05:53;3.75;;;2.20;;
52724;SDS011;38621;52.830;6.914;2023-07-20T03:08:21;3.85;;;2.50;;
52724;SDS011;38621;52.830;6.914;2023-07-20T03:10:47;3.50;;;2.50;;
52724;SDS011;38621;52.830;6.914;2023-07-20T03:13:12;4.55;;;2.50;;
52724;SDS011;38621;52.830;6.914;2023-07-20T03:15:39;4.72;;;2.90;;
52724;SDS011;38621;52.830;6.914;2023-07-20T03:18:04;10.52;;;3.55;;
52724;SDS011;38621;52.830;6.914;2023-07-20T03:20:30;5.78;;;3.63;;
52724;SDS011;38621;52.830;6.914;2023-07-20T03:22:56;20.15;;;4.35;;
52724;SDS011;38621;52.830;6.914;2023-07-20T03:25:22;9.15;;;3.67;;
52724;SDS011;38621;52.830;6.914;2023-07-20T03:27:48;4.38;;;3.25;;
52724;SDS011;38621;52.830;6.914;2023-07-20T03:30:14;5.60;;;3.50;;
52724;SDS011;38621;52.830;6.914;2023-07-20T03:32:39;5.15;;;3.70;;
52724;SDS011;38621;52.830;6.914;2023-07-20T03:35:05;7.22;;;3.63;;
52724;SDS011;38621;52.830;6.914;2023-07-20T03:37:31;6.95;;;3.90;;
52724;SDS011;38621;52.830;6.914;2023-07-20T03:39:59;5.03;;;3.67;;
52724;SDS011;38621;52.830;6.914;2023-07-20T03:42:25;4.95;;;3.60;;
52724;SDS011;38621;52.830;6.914;2023-07-20T03:44:51;6.68;;;3.83;;
52724;SDS011;38621;52.830;6.914;2023-07-20T03:47:16;5.65;;;3.58;;
52724;SDS011;38621;52.830;6.914;2023-07-20T03:49:42;4.93;;;3.45;;
52724;SDS011;38621;52.830;6.914;2023-07-20T03:52:08;5.18;;;3.28;;
52724;SDS011;38621;52.830;6.914;2023-07-20T03:54:33;5.00;;;3.50;;
52724;SDS011;38621;52.830;6.914;2023-07-20T03:56:59;4.97;;;3.40;;
52724;SDS011;38621;52.830;6.914;2023-07-20T03:59:26;5.63;;;3.40;;
52724;SDS011;38621;52.830;6.914;2023-07-20T04:01:51;4.88;;;3.17;;
52724;SDS011;38621;52.830;6.914;2023-07-20T04:04:17;5.25;;;3.40;;
52724;SDS011;38621;52.830;6.914;2023-07-20T04:06:43;4.80;;;3.25;;
52724;SDS011;38621;52.830;6.914;2023-07-20T04:09:11;5.15;;;3.42;;
52724;SDS011;38621;52.830;6.914;2023-07-20T04:11:37;5.07;;;3.15;;
52724;SDS011;38621;52.830;6.914;2023-07-20T04:14:04;4.65;;;2.60;;
52724;SDS011;38621;52.830;6.914;2023-07-20T04:16:29;5.25;;;3.25;;
52724;SDS011;38621;52.830;6.914;2023-07-20T04:18:55;3.78;;;3.00;;
52724;SDS011;38621;52.830;6.914;2023-07-20T04:21:22;4.28;;;3.10;;
52724;SDS011;38621;52.830;6.914;2023-07-20T04:23:48;5.05;;;3.13;;
52724;SDS011;38621;52.830;6.914;2023-07-20T04:26:14;7.60;;;3.47;;
52724;SDS011;38621;52.830;6.914;2023-07-20T04:28:40;3.92;;;2.92;;
52724;SDS011;38621;52.830;6.914;2023-07-20T04:31:11;4.38;;;3.28;;
52724;SDS011;38621;52.830;6.914;2023-07-20T04:33:38;4.53;;;3.10;;
52724;SDS011;38621;52.830;6.914;2023-07-20T04:36:04;3.65;;;2.60;;
52724;SDS011;38621;52.830;6.914;2023-07-20T04:38:30;5.28;;;2.72;;
52724;SDS011;38621;52.830;6.914;2023-07-20T04:40:55;4.45;;;3.22;;
52724;SDS011;38621;52.830;6.914;2023-07-20T04:43:21;5.97;;;3.13;;
52724;SDS011;38621;52.830;6.914;2023-07-20T04:45:47;4.57;;;3.20;;
52724;SDS011;38621;52.830;6.914;2023-07-20T04:48:13;4.40;;;3.20;;
52724;SDS011;38621;52.830;6.914;2023-07-20T04:50:41;5.03;;;3.08;;
52724;SDS011;38621;52.830;6.914;2023-07-20T04:53:10;4.00;;;3.05;;
52724;SDS011;38621;52.830;6.914;2023-07-20T04:55:37;4.40;;;3.38;;
52724;SDS011;38621;52.830;6.914;2023-07-20T04:58:05;4.65;;;2.92;;
52724;SDS011;38621;52.830;6.914;2023-07-20T05:00:32;5.13;;;2.90;;
52724;SDS011;38621;52.830;6.914;2023-07-20T05:02:58;5.53;;;2.90;;
52724;SDS011;38621;52.830;6.914;2023-07-20T05:05:24;4.68;;;2.90;;
52724;SDS011;38621;52.830;6.914;2023-07-20T05:07:50;4.05;;;2.90;;
52724;SDS011;38621;52.830;6.914;2023-07-20T05:10:17;4.15;;;2.60;;
52724;SDS011;38621;52.830;6.914;2023-07-20T05:12:43;3.42;;;2.78;;
52724;SDS011;38621;52.830;6.914;2023-07-20T05:15:09;3.92;;;2.53;;
52724;SDS011;38621;52.830;6.914;2023-07-20T05:17:34;3.78;;;2.05;;
52724;SDS011;38621;52.830;6.914;2023-07-20T05:20:00;5.53;;;2.53;;
52724;SDS011;38621;52.830;6.914;2023-07-20T05:22:26;3.75;;;2.20;;
52724;SDS011;38621;52.830;6.914;2023-07-20T05:24:52;3.83;;;2.17;;
52724;SDS011;38621;52.830;6.914;2023-07-20T05:27:17;3.40;;;2.25;;
52724;SDS011;38621;52.830;6.914;2023-07-20T05:29:46;2.60;;;1.50;;
52724;SDS011;38621;52.830;6.914;2023-07-20T05:32:15;4.13;;;2.20;;
52724;SDS011;38621;52.830;6.914;2023-07-20T05:34:40;3.13;;;1.50;;
52724;SDS011;38621;52.830;6.914;2023-07-20T05:37:06;3.00;;;1.75;;
52724;SDS011;38621;52.830;6.914;2023-07-20T05:39:32;3.70;;;1.88;;
52724;SDS011;38621;52.830;6.914;2023-07-20T05:41:58;3.55;;;1.77;;
52724;SDS011;38621;52.830;6.914;2023-07-20T05:44:24;1.67;;;1.00;;
52724;SDS011;38621;52.830;6.914;2023-07-20T05:46:50;2.10;;;1.23;;
52724;SDS011;38621;52.830;6.914;2023-07-20T05:49:15;2.42;;;1.10;;
52724;SDS011;38621;52.830;6.914;2023-07-20T05:51:41;2.65;;;1.05;;
52724;SDS011;38621;52.830;6.914;2023-07-20T05:54:07;1.80;;;0.95;;
52724;SDS011;38621;52.830;6.914;2023-07-20T05:56:33;1.98;;;1.15;;
52724;SDS011;38621;52.830;6.914;2023-07-20T05:58:58;1.98;;;0.80;;
52724;SDS011;38621;52.830;6.914;2023-07-20T06:01:24;2.45;;;1.02;;
52724;SDS011;38621;52.830;6.914;2023-07-20T06:03:52;1.40;;;0.80;;
52724;SDS011;38621;52.830;6.914;2023-07-20T06:06:18;2.47;;;1.05;;
52724;SDS011;38621;52.830;6.914;2023-07-20T06:08:44;1.45;;;0.90;;
52724;SDS011;38621;52.830;6.914;2023-07-20T06:11:10;1.65;;;0.90;;
52724;SDS011;38621;52.830;6.914;2023-07-20T06:13:36;2.28;;;1.00;;
52724;SDS011;38621;52.830;6.914;2023-07-20T06:16:02;1.60;;;1.00;;
52724;SDS011;38621;52.830;6.914;2023-07-20T06:18:28;2.30;;;1.13;;
52724;SDS011;38621;52.830;6.914;2023-07-20T06:20:55;1.77;;;0.90;;
52724;SDS011;38621;52.830;6.914;2023-07-20T06:23:21;1.38;;;0.80;;
52724;SDS011;38621;52.830;6.914;2023-07-20T06:25:47;1.77;;;1.00;;
52724;SDS011;38621;52.830;6.914;2023-07-20T06:28:13;1.40;;;0.80;;
52724;SDS011;38621;52.830;6.914;2023-07-20T06:30:39;2.03;;;1.00;;
52724;SDS011;38621;52.830;6.914;2023-07-20T06:33:05;2.78;;;1.00;;
52724;SDS011;38621;52.830;6.914;2023-07-20T06:35:31;2.70;;;0.93;;
52724;SDS011;38621;52.830;6.914;2023-07-20T06:37:57;1.52;;;1.00;;
52724;SDS011;38621;52.830;6.914;2023-07-20T06:40:25;2.10;;;0.98;;
52724;SDS011;38621;52.830;6.914;2023-07-20T06:42:51;1.65;;;0.90;;
52724;SDS011;38621;52.830;6.914;2023-07-20T06:45:16;1.08;;;0.70;;
52724;SDS011;38621;52.830;6.914;2023-07-20T06:47:42;1.48;;;0.77;;
52724;SDS011;38621;52.830;6.914;2023-07-20T06:50:08;2.47;;;1.00;;
52724;SDS011;38621;52.830;6.914;2023-07-20T06:52:35;1.77;;;0.95;;
52724;SDS011;38621;52.830;6.914;2023-07-20T06:55:00;1.45;;;0.80;;
52724;SDS011;38621;52.830;6.914;2023-07-20T06:57:26;3.30;;;1.00;;
52724;SDS011;38621;52.830;6.914;2023-07-20T06:59:52;2.25;;;0.80;;
52724;SDS011;38621;52.830;6.914;2023-07-20T07:02:18;1.42;;;0.65;;
52724;SDS011;38621;52.830;6.914;2023-07-20T07:04:44;1.33;;;0.70;;
52724;SDS011;38621;52.830;6.914;2023-07-20T07:07:13;3.10;;;0.88;;
52724;SDS011;38621;52.830;6.914;2023-07-20T07:09:40;1.88;;;1.00;;
52724;SDS011;38621;52.830;6.914;2023-07-20T07:12:06;1.42;;;0.73;;
52724;SDS011;38621;52.830;6.914;2023-07-20T07:14:32;2.35;;;0.80;;
52724;SDS011;38621;52.830;6.914;2023-07-20T07:16:58;3.05;;;1.00;;
52724;SDS011;38621;52.830;6.914;2023-07-20T07:19:24;1.90;;;1.10;;
52724;SDS011;38621;52.830;6.914;2023-07-20T07:21:50;1.70;;;0.80;;
52724;SDS011;38621;52.830;6.914;2023-07-20T07:24:16;1.83;;;0.77;;
52724;SDS011;38621;52.830;6.914;2023-07-20T07:26:41;3.10;;;0.95;;
52724;SDS011;38621;52.830;6.914;2023-07-20T07:29:07;2.28;;;0.80;;
52724;SDS011;38621;52.830;6.914;2023-07-20T07:31:34;1.95;;;0.70;;
52724;SDS011;38621;52.830;6.914;2023-07-20T07:34:01;3.40;;;1.00;;
52724;SDS011;38621;52.830;6.914;2023-07-20T07:36:27;2.92;;;0.70;;
52724;SDS011;38621;52.830;6.914;2023-07-20T07:38:53;1.40;;;0.60;;
52724;SDS011;38621;52.830;6.914;2023-07-20T07:41:19;2.10;;;0.73;;
52724;SDS011;38621;52.830;6.914;2023-07-20T07:43:45;1.20;;;0.65;;
52724;SDS011;38621;52.830;6.914;2023-07-20T07:46:11;1.85;;;0.70;;
52724;SDS011;38621;52.830;6.914;2023-07-20T07:48:37;1.92;;;0.80;;
52724;SDS011;38621;52.830;6.914;2023-07-20T07:51:03;2.05;;;0.88;;
52724;SDS011;38621;52.830;6.914;2023-07-20T07:53:28;2.40;;;0.70;;
52724;SDS011;38621;52.830;6.914;2023-07-20T07:55:54;1.83;;;0.73;;
52724;SDS011;38621;52.830;6.914;2023-07-20T07:58:20;1.40;;;0.70;;
52724;SDS011;38621;52.830;6.914;2023-07-20T08:00:46;1.17;;;0.70;;
52724;SDS011;38621;52.830;6.914;2023-07-20T08:03:13;2.08;;;0.57;;
52724;SDS011;38621;52.830;6.914;2023-07-20T08:05:38;3.15;;;0.70;;
52724;SDS011;38621;52.830;6.914;2023-07-20T08:08:04;1.65;;;0.68;;
52724;SDS011;38621;52.830;6.914;2023-07-20T08:10:30;2.53;;;0.75;;
52724;SDS011;38621;52.830;6.914;2023-07-20T08:12:56;2.22;;;0.60;;
52724;SDS011;38621;52.830;6.914;2023-07-20T08:15:21;1.60;;;0.70;;
52724;SDS011;38621;52.830;6.914;2023-07-20T08:17:47;1.42;;;0.70;;
52724;SDS011;38621;52.830;6.914;2023-07-20T08:20:14;0.90;;;0.50;;
52724;SDS011;38621;52.830;6.914;2023-07-20T08:22:42;1.70;;;0.63;;
52724;SDS011;38621;52.830;6.914;2023-07-20T08:25:08;2.20;;;0.73;;
52724;SDS011;38621;52.830;6.914;2023-07-20T08:27:34;1.35;;;0.52;;
52724;SDS011;38621;52.830;6.914;2023-07-20T08:30:01;2.63;;;0.73;;
52724;SDS011;38621;52.830;6.914;2023-07-20T08:32:27;1.20;;;0.68;;
52724;SDS011;38621;52.830;6.914;2023-07-20T08:34:53;1.35;;;0.70;;
52724;SDS011;38621;52.830;6.914;2023-07-20T08:37:19;4.03;;;0.82;;
52724;SDS011;38621;52.830;6.914;2023-07-20T08:39:44;1.23;;;0.60;;
52724;SDS011;38621;52.830;6.914;2023-07-20T08:42:10;1.30;;;0.55;;
52724;SDS011;38621;52.830;6.914;2023-07-20T08:44:39;3.92;;;0.70;;
52724;SDS011;38621;52.830;6.914;2023-07-20T08:47:09;1.77;;;0.70;;
52724;SDS011;38621;52.830;6.914;2023-07-20T08:49:37;2.30;;;0.80;;
52724;SDS011;38621;52.830;6.914;2023-07-20T08:52:04;2.25;;;0.80;;
52724;SDS011;38621;52.830;6.914;2023-07-20T08:54:31;1.00;;;0.60;;
52724;SDS011;38621;52.830;6.914;2023-07-20T08:57:03;1.52;;;0.65;;
52724;SDS011;38621;52.830;6.914;2023-07-20T08:59:30;1.83;;;0.63;;
52724;SDS011;38621;52.830;6.914;2023-07-20T09:01:57;1.88;;;0.70;;
52724;SDS011;38621;52.830;6.914;2023-07-20T09:04:24;1.30;;;0.60;;
52724;SDS011;38621;52.830;6.914;2023-07-20T09:06:50;2.60;;;0.68;;
52724;SDS011;38621;52.830;6.914;2023-07-20T09:09:17;1.85;;;0.68;;
52724;SDS011;38621;52.830;6.914;2023-07-20T09:11:43;1.60;;;0.77;;
52724;SDS011;38621;52.830;6.914;2023-07-20T09:14:12;1.20;;;0.70;;
52724;SDS011;38621;52.830;6.914;2023-07-20T09:16:46;3.05;;;0.60;;
52724;SDS011;38621;52.830;6.914;2023-07-20T09:19:14;2.42;;;0.80;;
52724;SDS011;38621;52.830;6.914;2023-07-20T09:21:43;1.38;;;0.65;;
52724;SDS011;38621;52.830;6.914;2023-07-20T09:24:10;2.08;;;0.68;;
52724;SDS011;38621;52.830;6.914;2023-07-20T09:26:40;1.63;;;0.70;;
52724;SDS011;38621;52.830;6.914;2023-07-20T09:29:08;1.67;;;0.70;;
52724;SDS011;38621;52.830;6.914;2023-07-20T09:31:37;1.38;;;0.60;;
52724;SDS011;38621;52.830;6.914;2023-07-20T09:34:05;1.73;;;0.70;;
52724;SDS011;38621;52.830;6.914;2023-07-20T09:36:33;2.17;;;0.63;;
52724;SDS011;38621;52.830;6.914;2023-07-20T09:39:00;1.38;;;0.70;;
52724;SDS011;38621;52.830;6.914;2023-07-20T09:41:26;1.50;;;0.60;;
52724;SDS011;38621;52.830;6.914;2023-07-20T09:43:52;2.05;;;0.80;;
52724;SDS011;38621;52.830;6.914;2023-07-20T09:46:18;1.40;;;0.60;;
52724;SDS011;38621;52.830;6.914;2023-07-20T09:48:52;1.30;;;0.70;;
52724;SDS011;38621;52.830;6.914;2023-07-20T09:51:23;1.63;;;0.60;;
52724;SDS011;38621;52.830;6.914;2023-07-20T09:53:51;1.70;;;0.60;;
52724;SDS011;38621;52.830;6.914;2023-07-20T09:56:18;2.20;;;0.70;;
52724;SDS011;38621;52.830;6.914;2023-07-20T09:58:48;1.50;;;0.70;;
52724;SDS011;38621;52.830;6.914;2023-07-20T10:01:15;2.60;;;0.70;;
52724;SDS011;38621;52.830;6.914;2023-07-20T10:03:46;1.90;;;0.70;;
52724;SDS011;38621;52.830;6.914;2023-07-20T10:06:13;2.50;;;0.70;;
52724;SDS011;38621;52.830;6.914;2023-07-20T10:08:43;1.13;;;0.52;;
52724;SDS011;38621;52.830;6.914;2023-07-20T10:11:12;1.45;;;0.70;;
52724;SDS011;38621;52.830;6.914;2023-07-20T10:13:41;1.38;;;0.65;;
52724;SDS011;38621;52.830;6.914;2023-07-20T10:16:10;0.95;;;0.60;;
52724;SDS011;38621;52.830;6.914;2023-07-20T10:21:20;1.60;;;0.70;;
52724;SDS011;38621;52.830;6.914;2023-07-20T10:23:49;2.05;;;0.70;;
52724;SDS011;38621;52.830;6.914;2023-07-20T10:26:15;2.55;;;0.60;;
52724;SDS011;38621;52.830;6.914;2023-07-20T10:28:41;1.50;;;0.52;;
52724;SDS011;38621;52.830;6.914;2023-07-20T10:31:07;1.00;;;0.50;;
52724;SDS011;38621;52.830;6.914;2023-07-20T10:33:34;1.17;;;0.60;;
52724;SDS011;38621;52.830;6.914;2023-07-20T10:36:02;2.78;;;0.60;;
52724;SDS011;38621;52.830;6.914;2023-07-20T10:41:15;2.10;;;0.70;;
52724;SDS011;38621;52.830;6.914;2023-07-20T10:43:45;1.90;;;0.60;;
52724;SDS011;38621;52.830;6.914;2023-07-20T10:46:12;1.67;;;0.65;;
52724;SDS011;38621;52.830;6.914;2023-07-20T10:51:30;2.35;;;0.70;;
52724;SDS011;38621;52.830;6.914;2023-07-20T10:54:03;1.30;;;0.70;;
52724;SDS011;38621;52.830;6.914;2023-07-20T10:56:29;1.23;;;0.65;;
52724;SDS011;38621;52.830;6.914;2023-07-20T10:58:58;1.48;;;0.70;;
52724;SDS011;38621;52.830;6.914;2023-07-20T11:01:28;3.35;;;0.82;;
52724;SDS011;38621;52.830;6.914;2023-07-20T11:03:58;1.63;;;0.70;;
52724;SDS011;38621;52.830;6.914;2023-07-20T11:08:57;1.15;;;0.55;;
52724;SDS011;38621;52.830;6.914;2023-07-20T11:11:33;2.05;;;0.80;;
52724;SDS011;38621;52.830;6.914;2023-07-20T11:14:01;1.55;;;0.70;;
52724;SDS011;38621;52.830;6.914;2023-07-20T11:19:01;2.08;;;0.70;;
52724;SDS011;38621;52.830;6.914;2023-07-20T11:21:37;1.70;;;0.60;;
52724;SDS011;38621;52.830;6.914;2023-07-20T11:24:06;1.50;;;0.63;;
52724;SDS011;38621;52.830;6.914;2023-07-20T11:26:42;2.00;;;0.75;;
52724;SDS011;38621;52.830;6.914;2023-07-20T11:29:09;1.67;;;0.75;;
52724;SDS011;38621;52.830;6.914;2023-07-20T11:31:35;2.03;;;0.80;;
52724;SDS011;38621;52.830;6.914;2023-07-20T11:34:05;1.42;;;0.73;;
52724;SDS011;38621;52.830;6.914;2023-07-20T11:36:31;1.73;;;0.98;;
52724;SDS011;38621;52.830;6.914;2023-07-20T11:38:58;1.92;;;0.73;;
52724;SDS011;38621;52.830;6.914;2023-07-20T11:41:25;1.48;;;0.80;;
52724;SDS011;38621;52.830;6.914;2023-07-20T11:43:53;2.05;;;0.90;;
52724;SDS011;38621;52.830;6.914;2023-07-20T11:46:19;1.25;;;0.70;;
52724;SDS011;38621;52.830;6.914;2023-07-20T11:48:45;2.03;;;1.40;;
52724;SDS011;38621;52.830;6.914;2023-07-20T11:51:17;2.75;;;0.90;;
52724;SDS011;38621;52.830;6.914;2023-07-20T11:53:43;1.77;;;0.90;;
52724;SDS011;38621;52.830;6.914;2023-07-20T11:56:11;2.42;;;0.82;;
52724;SDS011;38621;52.830;6.914;2023-07-20T11:58:46;1.85;;;1.02;;
52724;SDS011;38621;52.830;6.914;2023-07-20T12:01:12;1.83;;;0.60;;
52724;SDS011;38621;52.830;6.914;2023-07-20T12:03:39;2.15;;;0.90;;
52724;SDS011;38621;52.830;6.914;2023-07-20T12:06:08;2.03;;;0.90;;
52724;SDS011;38621;52.830;6.914;2023-07-20T12:08:34;1.63;;;0.60;;
52724;SDS011;38621;52.830;6.914;2023-07-20T12:11:02;2.42;;;0.70;;
52724;SDS011;38621;52.830;6.914;2023-07-20T12:16:15;2.22;;;0.80;;
52724;SDS011;38621;52.830;6.914;2023-07-20T12:18:42;1.58;;;0.80;;
52724;SDS011;38621;52.830;6.914;2023-07-20T12:21:08;1.65;;;0.82;;
52724;SDS011;38621;52.830;6.914;2023-07-20T12:23:36;1.58;;;0.70;;
52724;SDS011;38621;52.830;6.914;2023-07-20T12:26:06;1.95;;;0.85;;
52724;SDS011;38621;52.830;6.914;2023-07-20T12:28:35;1.90;;;0.95;;
52724;SDS011;38621;52.830;6.914;2023-07-20T12:31:05;1.10;;;0.70;;
52724;SDS011;38621;52.830;6.914;2023-07-20T12:33:31;1.88;;;0.70;;
52724;SDS011;38621;52.830;6.914;2023-07-20T12:35:57;2.22;;;0.90;;
52724;SDS011;38621;52.830;6.914;2023-07-20T12:38:24;1.88;;;0.75;;
52724;SDS011;38621;52.830;6.914;2023-07-20T12:40:51;1.60;;;0.80;;
52724;SDS011;38621;52.830;6.914;2023-07-20T12:43:17;1.98;;;0.95;;
52724;SDS011;38621;52.830;6.914;2023-07-20T12:45:42;2.17;;;1.10;;
52724;SDS011;38621;52.830;6.914;2023-07-20T12:48:08;2.33;;;1.10;;
52724;SDS011;38621;52.830;6.914;2023-07-20T12:50:34;1.80;;;1.00;;
52724;SDS011;38621;52.830;6.914;2023-07-20T12:52:59;1.70;;;1.10;;
52724;SDS011;38621;52.830;6.914;2023-07-20T12:55:25;2.60;;;1.20;;
52724;SDS011;38621;52.830;6.914;2023-07-20T12:57:51;2.20;;;1.10;;
52724;SDS011;38621;52.830;6.914;2023-07-20T13:00:17;2.38;;;1.10;;
52724;SDS011;38621;52.830;6.914;2023-07-20T13:02:43;1.20;;;0.75;;
52724;SDS011;38621;52.830;6.914;2023-07-20T13:05:09;1.52;;;0.80;;
52724;SDS011;38621;52.830;6.914;2023-07-20T13:07:38;1.30;;;0.70;;
52724;SDS011;38621;52.830;6.914;2023-07-20T13:10:04;2.15;;;1.00;;
52724;SDS011;38621;52.830;6.914;2023-07-20T13:12:31;1.65;;;0.85;;
52724;SDS011;38621;52.830;6.914;2023-07-20T13:14:58;1.98;;;1.00;;
52724;SDS011;38621;52.830;6.914;2023-07-20T13:17:26;1.90;;;0.80;;
52724;SDS011;38621;52.830;6.914;2023-07-20T13:19:52;3.35;;;0.82;;
52724;SDS011;38621;52.830;6.914;2023-07-20T13:22:18;1.40;;;0.70;;
52724;SDS011;38621;52.830;6.914;2023-07-20T13:24:45;1.67;;;0.95;;
52724;SDS011;38621;52.830;6.914;2023-07-20T13:27:17;3.17;;;0.88;;
52724;SDS011;38621;52.830;6.914;2023-07-20T13:29:43;2.08;;;1.00;;
52724;SDS011;38621;52.830;6.914;2023-07-20T13:32:12;2.25;;;0.90;;
52724;SDS011;38621;52.830;6.914;2023-07-20T13:34:39;1.65;;;0.80;;
52724;SDS011;38621;52.830;6.914;2023-07-20T13:37:05;1.70;;;1.00;;
52724;SDS011;38621;52.830;6.914;2023-07-20T13:39:31;2.28;;;0.95;;
52724;SDS011;38621;52.830;6.914;2023-07-20T13:41:57;1.70;;;0.80;;
52724;SDS011;38621;52.830;6.914;2023-07-20T13:44:22;1.52;;;0.88;;
52724;SDS011;38621;52.830;6.914;2023-07-20T13:46:48;2.72;;;0.90;;
52724;SDS011;38621;52.830;6.914;2023-07-20T13:49:15;2.38;;;1.00;;
52724;SDS011;38621;52.830;6.914;2023-07-20T13:51:41;1.90;;;1.10;;
52724;SDS011;38621;52.830;6.914;2023-07-20T13:54:07;1.85;;;1.00;;
52724;SDS011;38621;52.830;6.914;2023-07-20T13:56:33;2.63;;;1.10;;
52724;SDS011;38621;52.830;6.914;2023-07-20T13:58:59;3.72;;;0.90;;
52724;SDS011;38621;52.830;6.914;2023-07-20T14:01:26;1.83;;;0.80;;
52724;SDS011;38621;52.830;6.914;2023-07-20T14:03:53;2.00;;;0.90;;
52724;SDS011;38621;52.830;6.914;2023-07-20T14:06:19;2.90;;;1.25;;
52724;SDS011;38621;52.830;6.914;2023-07-20T14:08:45;1.33;;;0.70;;
52724;SDS011;38621;52.830;6.914;2023-07-20T14:11:12;3.50;;;0.90;;
52724;SDS011;38621;52.830;6.914;2023-07-20T14:13:38;2.20;;;0.90;;
52724;SDS011;38621;52.830;6.914;2023-07-20T14:16:04;2.80;;;1.10;;
52724;SDS011;38621;52.830;6.914;2023-07-20T14:18:30;2.30;;;0.80;;
52724;SDS011;38621;52.830;6.914;2023-07-20T14:20:56;2.30;;;1.05;;
52724;SDS011;38621;52.830;6.914;2023-07-20T14:23:21;2.30;;;0.80;;
52724;SDS011;38621;52.830;6.914;2023-07-20T14:25:47;2.65;;;1.02;;
52724;SDS011;38621;52.830;6.914;2023-07-20T14:28:13;2.05;;;0.93;;
52724;SDS011;38621;52.830;6.914;2023-07-20T14:30:39;2.40;;;1.00;;
52724;SDS011;38621;52.830;6.914;2023-07-20T14:33:05;3.85;;;1.20;;
52724;SDS011;38621;52.830;6.914;2023-07-20T14:35:31;2.80;;;1.42;;
52724;SDS011;38621;52.830;6.914;2023-07-20T14:37:57;3.95;;;1.08;;
52724;SDS011;38621;52.830;6.914;2023-07-20T14:40:23;2.17;;;1.05;;
52724;SDS011;38621;52.830;6.914;2023-07-20T14:42:49;2.15;;;1.00;;
52724;SDS011;38621;52.830;6.914;2023-07-20T14:45:14;2.47;;;0.93;;
52724;SDS011;38621;52.830;6.914;2023-07-20T14:47:41;1.80;;;0.75;;
52724;SDS011;38621;52.830;6.914;2023-07-20T14:50:08;1.98;;;0.98;;
52724;SDS011;38621;52.830;6.914;2023-07-20T14:52:34;1.95;;;0.98;;
52724;SDS011;38621;52.830;6.914;2023-07-20T14:55:00;4.85;;;1.17;;
52724;SDS011;38621;52.830;6.914;2023-07-20T14:57:25;2.33;;;0.90;;
52724;SDS011;38621;52.830;6.914;2023-07-20T14:59:51;1.98;;;0.82;;
52724;SDS011;38621;52.830;6.914;2023-07-20T15:02:17;1.73;;;0.80;;
52724;SDS011;38621;52.830;6.914;2023-07-20T15:04:50;4.45;;;1.33;;
52724;SDS011;38621;52.830;6.914;2023-07-20T15:07:16;2.00;;;0.90;;
52724;SDS011;38621;52.830;6.914;2023-07-20T15:09:48;2.63;;;1.05;;